createdAt,value
2024-02-24T00:00:00.564Z,65.4
2024-02-24T00:01:00.377Z,66.4
2024-02-24T00:02:00.386Z,67.1
2024-02-24T00:03:00.304Z,67.1
2024-02-24T00:04:00.338Z,67.1
2024-02-24T00:05:00.340Z,67.1
2024-02-24T00:06:00.442Z,69.7
2024-02-24T00:08:00.245Z,70.7
2024-02-24T00:09:00.356Z,70.7
2024-02-24T00:10:00.346Z,71.9
2024-02-24T00:11:00.313Z,71.9
2024-02-24T00:12:00.355Z,70.8
2024-02-24T00:13:00.316Z,70.8
2024-02-24T00:14:00.447Z,70.3
2024-02-24T00:15:00.476Z,70.3
2024-02-24T00:16:03.044Z,69.4
2024-02-24T00:17:00.340Z,69.4
2024-02-24T00:18:00.382Z,68.6
2024-02-24T00:19:00.429Z,68.6
2024-02-24T00:20:00.338Z,69.2
2024-02-24T00:21:00.313Z,69.2
2024-02-24T00:22:00.292Z,67.0
2024-02-24T00:23:00.477Z,67.0
2024-02-24T00:24:00.296Z,68.0
2024-02-24T00:25:00.317Z,68.0
2024-02-24T00:26:00.333Z,69.2
2024-02-24T00:27:00.356Z,69.2
2024-02-24T00:28:00.271Z,69.2
2024-02-24T00:30:00.380Z,70.1
2024-02-24T00:31:00.293Z,70.3
2024-02-24T00:32:00.339Z,67.7
2024-02-24T00:33:00.384Z,67.7
2024-02-24T00:34:00.417Z,69.2
2024-02-24T00:35:00.379Z,69.2
2024-02-24T00:36:01.486Z,70.2
2024-02-24T00:37:00.334Z,70.2
2024-02-24T00:38:00.231Z,69.6
2024-02-24T00:39:00.288Z,69.6
2024-02-24T00:40:00.416Z,69.8
2024-02-24T00:41:00.330Z,69.8
2024-02-24T00:42:00.467Z,70.4
2024-02-24T00:43:00.293Z,70.4
2024-02-24T00:44:00.340Z,70.1
2024-02-24T00:45:00.344Z,70.1
2024-02-24T00:46:00.304Z,69.1
2024-02-24T00:47:00.359Z,69.1
2024-02-24T00:48:00.302Z,67.9
2024-02-24T00:49:00.348Z,67.9
2024-02-24T00:50:00.353Z,68.2
2024-02-24T00:51:00.320Z,68.2
2024-02-24T00:52:00.307Z,68.2
2024-02-24T00:53:00.416Z,67.5
2024-02-24T00:54:00.443Z,67.3
2024-02-24T00:55:00.354Z,67.3
2024-02-24T00:56:00.314Z,67.3
2024-02-24T00:57:00.295Z,67.3
2024-02-24T00:58:00.270Z,68.1
2024-02-24T00:59:00.336Z,68.1
2024-02-24T01:00:00.421Z,67.7
2024-02-24T01:01:00.377Z,67.7
2024-02-24T01:02:00.306Z,68.0
2024-02-24T01:03:00.298Z,68.0
2024-02-24T01:04:00.484Z,67.3
2024-02-24T01:05:00.364Z,67.3
2024-02-24T01:06:00.335Z,66.8
2024-02-24T01:08:00.263Z,67.6
2024-02-24T01:11:00.379Z,66.8
2024-02-24T01:13:00.374Z,67.4
2024-02-24T01:14:00.378Z,67.4
2024-02-24T01:15:00.517Z,66.8
2024-02-24T01:17:00.348Z,67.9
2024-02-24T01:18:00.678Z,70.1
2024-02-24T01:19:00.447Z,70.1
2024-02-24T01:20:00.339Z,72.6
2024-02-24T01:21:02.028Z,72.6
2024-02-24T01:22:00.318Z,71.0
2024-02-24T01:23:00.338Z,71.0
2024-02-24T01:24:00.386Z,70.3
2024-02-24T01:26:00.329Z,70.8
2024-02-24T01:27:00.307Z,70.8
2024-02-24T01:28:00.230Z,70.2
2024-02-24T01:29:00.352Z,70.2
2024-02-24T01:31:00.330Z,70.1
2024-02-24T01:32:00.324Z,68.1
2024-02-24T01:33:00.475Z,68.1
2024-02-24T01:34:00.422Z,68.7
2024-02-24T01:35:00.475Z,68.7
2024-02-24T01:36:00.346Z,69.3
2024-02-24T01:37:00.298Z,69.3
2024-02-24T01:38:00.246Z,69.4
2024-02-24T01:39:00.283Z,69.4
2024-02-24T01:42:00.365Z,68.8
2024-02-24T01:44:00.337Z,67.7
2024-02-24T01:45:00.807Z,68.6
2024-02-24T01:46:00.302Z,68.6
2024-02-24T01:47:00.339Z,68.4
2024-02-24T01:48:00.595Z,68.4
2024-02-24T01:49:00.538Z,68.8
2024-02-24T01:50:00.688Z,68.8
2024-02-24T01:51:01.320Z,69.1
2024-02-24T01:53:00.457Z,68.8
2024-02-24T01:54:00.374Z,68.8
2024-02-24T01:55:02.425Z,68.8
2024-02-24T01:57:01.948Z,67.8
2024-02-24T01:58:00.788Z,67.8
2024-02-24T01:59:00.702Z,67.4
2024-02-24T02:00:01.274Z,67.4
2024-02-24T02:02:00.318Z,67.6
2024-02-24T02:04:00.285Z,67.1
2024-02-24T02:05:00.396Z,67.5
2024-02-24T02:06:00.857Z,67.5
2024-02-24T02:07:00.630Z,68.2
2024-02-24T02:08:00.252Z,68.2
2024-02-24T02:09:00.325Z,69.1
2024-02-24T02:10:00.725Z,69.1
2024-02-24T02:11:00.419Z,68.3
2024-02-24T02:12:04.053Z,68.3
2024-02-24T02:13:00.442Z,68.6
2024-02-24T02:14:00.325Z,68.6
2024-02-24T02:15:00.398Z,68.8
2024-02-24T02:16:00.362Z,68.8
2024-02-24T02:17:00.306Z,68.8
2024-02-24T02:18:00.432Z,68.8
2024-02-24T02:19:00.484Z,68.2
2024-02-24T02:20:01.089Z,68.2
2024-02-24T02:21:00.332Z,67.4
2024-02-24T02:22:00.890Z,67.4
2024-02-24T02:23:00.529Z,68.4
2024-02-24T02:24:00.319Z,68.4
2024-02-24T02:25:00.320Z,67.6
2024-02-24T02:26:00.318Z,67.6
2024-02-24T02:27:00.340Z,66.8
2024-02-24T02:28:00.232Z,66.8
2024-02-24T02:29:00.304Z,65.5
2024-02-24T02:30:00.410Z,65.5
2024-02-24T02:31:00.410Z,67.5
2024-02-24T02:32:00.448Z,67.5
2024-02-24T02:33:00.878Z,67.6
2024-02-24T02:34:00.457Z,67.6
2024-02-24T02:35:00.311Z,67.6
2024-02-24T02:36:00.329Z,67.6
2024-02-24T02:37:00.310Z,67.7
2024-02-24T02:38:00.449Z,67.7
2024-02-24T02:39:00.296Z,68.9
2024-02-24T02:40:00.393Z,68.9
2024-02-24T02:41:00.434Z,68.3
2024-02-24T02:42:00.391Z,68.3
2024-02-24T02:43:00.294Z,69.6
2024-02-24T02:45:00.334Z,68.6
2024-02-24T02:46:00.332Z,68.6
2024-02-24T02:47:04.080Z,68.1
2024-02-24T02:48:00.371Z,68.1
2024-02-24T02:49:00.466Z,67.3
2024-02-24T02:50:00.329Z,67.3
2024-02-24T02:51:00.317Z,65.8
2024-02-24T02:52:00.306Z,65.8
2024-02-24T02:53:00.303Z,65.5
2024-02-24T02:54:00.330Z,65.5
2024-02-24T02:55:00.423Z,65.2
2024-02-24T02:56:00.312Z,65.2
2024-02-24T02:57:00.478Z,64.5
2024-02-24T02:58:00.240Z,64.5
2024-02-24T02:59:00.330Z,64.1
2024-02-24T03:00:00.463Z,64.1
2024-02-24T03:01:00.370Z,65.2
2024-02-24T03:02:00.353Z,65.2
2024-02-24T03:03:00.318Z,65.3
2024-02-24T03:04:00.433Z,65.3
2024-02-24T03:05:00.538Z,66.1
2024-02-24T03:06:00.349Z,66.1
2024-02-24T03:07:00.320Z,65.9
2024-02-24T03:08:00.247Z,65.9
2024-02-24T03:09:00.351Z,65.1
2024-02-24T03:10:00.381Z,65.1
2024-02-24T03:11:02.100Z,67.9
2024-02-24T03:12:00.452Z,67.9
2024-02-24T03:13:00.289Z,68.6
2024-02-24T03:14:00.312Z,68.6
2024-02-24T03:15:00.319Z,68.7
2024-02-24T03:16:00.318Z,68.7
2024-02-24T03:17:00.343Z,69.3
2024-02-24T03:18:00.311Z,69.3
2024-02-24T03:19:00.448Z,68.8
2024-02-24T03:20:00.409Z,68.8
2024-02-24T03:21:00.389Z,69.2
2024-02-24T03:22:00.315Z,69.2
2024-02-24T03:23:00.278Z,69.1
2024-02-24T03:24:00.672Z,69.1
2024-02-24T03:25:00.322Z,68.1
2024-02-24T03:26:00.300Z,68.1
2024-02-24T03:27:00.458Z,68.1
2024-02-24T03:28:00.310Z,68.1
2024-02-24T03:29:00.293Z,68.3
2024-02-24T03:30:00.382Z,68.3
2024-02-24T03:31:00.278Z,69.1
2024-02-24T03:32:00.306Z,69.1
2024-02-24T03:33:00.414Z,69.9
2024-02-24T03:34:00.360Z,69.9
2024-02-24T03:35:00.332Z,70.2
2024-02-24T03:36:01.002Z,70.2
2024-02-24T03:37:00.320Z,70.0
2024-02-24T03:38:00.234Z,70.0
2024-02-24T03:39:00.301Z,69.3
2024-02-24T03:40:00.423Z,69.3
2024-02-24T03:41:00.314Z,68.4
2024-02-24T03:42:00.313Z,68.4
2024-02-24T03:43:00.320Z,69.5
2024-02-24T03:44:00.294Z,69.5
2024-02-24T03:45:01.236Z,69.9
2024-02-24T03:46:01.212Z,69.9
2024-02-24T03:47:00.375Z,69.0
2024-02-24T03:48:00.443Z,69.0
2024-02-24T03:49:00.400Z,69.1
2024-02-24T03:50:00.344Z,69.1
2024-02-24T03:51:00.364Z,68.8
2024-02-24T03:52:00.303Z,68.8
2024-02-24T03:53:00.378Z,67.3
2024-02-24T03:54:00.458Z,67.3
2024-02-24T03:55:00.430Z,68.5
2024-02-24T03:56:00.327Z,68.5
2024-02-24T03:57:00.290Z,67.8
2024-02-24T03:58:00.234Z,67.8
2024-02-24T03:59:00.423Z,68.8
2024-02-24T04:00:00.351Z,68.8
2024-02-24T04:01:00.355Z,67.2
2024-02-24T04:02:00.305Z,67.2
2024-02-24T04:03:01.436Z,67.1
2024-02-24T04:04:00.391Z,67.1
2024-02-24T04:05:00.400Z,68.2
2024-02-24T04:06:00.477Z,68.2
2024-02-24T04:07:00.367Z,67.6
2024-02-24T04:08:00.242Z,67.6
2024-02-24T04:09:00.365Z,67.8
2024-02-24T04:10:00.325Z,67.8
2024-02-24T04:11:00.746Z,66.9
2024-02-24T04:12:00.516Z,66.9
2024-02-24T04:13:00.347Z,67.3
2024-02-24T04:14:00.327Z,67.3
2024-02-24T04:15:00.426Z,66.0
2024-02-24T04:16:00.322Z,66.0
2024-02-24T04:17:00.325Z,66.9
2024-02-24T04:18:00.389Z,66.9
2024-02-24T04:19:00.607Z,67.1
2024-02-24T04:20:00.385Z,67.1
2024-02-24T04:21:00.366Z,67.2
2024-02-24T04:22:00.379Z,67.2
2024-02-24T04:23:00.291Z,67.2
2024-02-24T04:24:00.327Z,67.2
2024-02-24T04:25:00.358Z,67.1
2024-02-24T04:26:00.326Z,67.1
2024-02-24T04:27:00.330Z,66.4
2024-02-24T04:28:00.261Z,66.4
2024-02-24T04:29:00.309Z,66.4
2024-02-24T04:30:00.524Z,66.4
2024-02-24T04:31:00.385Z,67.5
2024-02-24T04:32:00.296Z,67.5
2024-02-24T04:33:00.571Z,66.9
2024-02-24T04:34:00.425Z,66.9
2024-02-24T04:35:00.467Z,65.7
2024-02-24T04:36:01.502Z,65.7
2024-02-24T04:37:00.291Z,65.1
2024-02-24T04:38:00.271Z,65.1
2024-02-24T04:39:00.330Z,64.9
2024-02-24T04:40:00.301Z,64.9
2024-02-24T04:41:00.301Z,67.0
2024-02-24T04:42:00.315Z,67.0
2024-02-24T04:43:00.412Z,67.9
2024-02-24T04:44:00.318Z,67.9
2024-02-24T04:45:00.310Z,66.9
2024-02-24T04:46:00.436Z,66.9
2024-02-24T04:47:00.490Z,67.0
2024-02-24T04:48:00.629Z,67.0
2024-02-24T04:49:00.374Z,67.5
2024-02-24T04:50:00.517Z,67.5
2024-02-24T04:51:03.111Z,67.7
2024-02-24T04:52:00.324Z,67.7
2024-02-24T04:53:00.570Z,67.3
2024-02-24T04:54:00.287Z,67.3
2024-02-24T04:55:00.405Z,66.1
2024-02-24T04:56:00.287Z,66.1
2024-02-24T04:57:00.315Z,66.7
2024-02-24T04:58:00.238Z,66.7
2024-02-24T04:59:00.296Z,65.7
2024-02-24T05:00:00.673Z,65.7
2024-02-24T05:01:00.377Z,66.2
2024-02-24T05:02:00.290Z,66.2
2024-02-24T05:03:00.524Z,66.2
2024-02-24T05:04:00.340Z,66.2
2024-02-24T05:05:00.311Z,65.5
2024-02-24T05:06:00.456Z,65.5
2024-02-24T05:07:00.314Z,65.1
2024-02-24T05:08:00.249Z,65.1
2024-02-24T05:09:00.427Z,65.4
2024-02-24T05:10:00.296Z,65.4
2024-02-24T05:11:01.196Z,64.9
2024-02-24T05:12:00.752Z,64.9
2024-02-24T05:13:02.162Z,66.0
2024-02-24T05:14:00.316Z,66.0
2024-02-24T05:15:00.609Z,65.6
2024-02-24T05:16:01.953Z,65.6
2024-02-24T05:17:00.302Z,65.7
2024-02-24T05:18:00.379Z,65.7
2024-02-24T05:19:00.400Z,66.2
2024-02-24T05:20:00.300Z,66.2
2024-02-24T05:21:00.814Z,66.1
2024-02-24T05:22:00.352Z,66.1
2024-02-24T05:23:01.022Z,65.3
2024-02-24T05:24:00.317Z,65.3
2024-02-24T05:25:01.072Z,64.0
2024-02-24T05:26:00.293Z,64.0
2024-02-24T05:27:00.286Z,64.7
2024-02-24T05:28:00.714Z,64.7
2024-02-24T05:29:00.286Z,64.6
2024-02-24T05:30:00.361Z,64.6
2024-02-24T05:31:00.391Z,64.9
2024-02-24T05:32:00.551Z,64.9
2024-02-24T05:33:00.348Z,63.9
2024-02-24T05:34:01.004Z,63.9
2024-02-24T05:35:00.361Z,66.2
2024-02-24T05:36:00.374Z,66.2
2024-02-24T05:37:00.315Z,66.7
2024-02-24T05:38:00.308Z,66.7
2024-02-24T05:39:00.330Z,66.1
2024-02-24T05:40:00.445Z,66.1
2024-02-24T05:41:00.496Z,65.4
2024-02-24T05:42:00.323Z,65.4
2024-02-24T05:43:00.340Z,67.0
2024-02-24T05:44:00.354Z,67.0
2024-02-24T05:45:00.452Z,66.2
2024-02-24T05:46:02.843Z,66.2
2024-02-24T05:47:00.377Z,67.4
2024-02-24T05:48:00.420Z,67.4
2024-02-24T05:49:00.332Z,67.1
2024-02-24T05:50:00.333Z,67.1
2024-02-24T05:51:00.422Z,67.1
2024-02-24T05:52:00.312Z,67.1
2024-02-24T05:53:00.302Z,65.5
2024-02-24T05:54:00.404Z,65.5
2024-02-24T05:55:00.307Z,66.3
2024-02-24T05:56:00.365Z,66.3
2024-02-24T05:57:00.288Z,67.1
2024-02-24T05:58:00.233Z,67.1
2024-02-24T05:59:00.335Z,66.9
2024-02-24T06:00:00.386Z,66.9
2024-02-24T06:01:01.645Z,65.0
2024-02-24T06:02:00.379Z,65.0
2024-02-24T06:03:00.569Z,65.9
2024-02-24T06:04:00.325Z,65.9
2024-02-24T06:05:00.377Z,65.8
2024-02-24T06:06:00.453Z,65.8
2024-02-24T06:07:00.406Z,65.9
2024-02-24T06:08:00.240Z,65.9
2024-02-24T06:09:00.395Z,65.4
2024-02-24T06:10:00.402Z,65.4
2024-02-24T06:11:00.352Z,67.6
2024-02-24T06:12:00.352Z,67.6
2024-02-24T06:13:00.930Z,67.4
2024-02-24T06:14:00.287Z,67.4
2024-02-24T06:15:00.354Z,67.9
2024-02-24T06:16:00.315Z,67.9
2024-02-24T06:17:00.564Z,66.5
2024-02-24T06:18:00.307Z,66.5
2024-02-24T06:19:00.438Z,67.2
2024-02-24T06:20:00.394Z,67.2
2024-02-24T06:21:01.696Z,67.6
2024-02-24T06:22:00.358Z,67.6
2024-02-24T06:23:00.452Z,66.4
2024-02-24T06:24:00.348Z,66.4
2024-02-24T06:25:00.399Z,63.3
2024-02-24T06:26:00.334Z,63.3
2024-02-24T06:27:00.394Z,63.4
2024-02-24T06:28:00.234Z,63.4
2024-02-24T06:29:00.334Z,61.5
2024-02-24T06:30:00.358Z,61.5
2024-02-24T06:31:00.327Z,61.2
2024-02-24T06:32:00.318Z,61.2
2024-02-24T06:33:00.492Z,58.7
2024-02-24T06:34:01.720Z,58.7
2024-02-24T06:35:00.493Z,57.4
2024-02-24T06:36:01.874Z,57.4
2024-02-24T06:37:00.314Z,59.0
2024-02-24T06:38:00.319Z,59.0
2024-02-24T06:39:00.298Z,57.0
2024-02-24T06:40:00.350Z,57.0
2024-02-24T06:41:00.371Z,55.3
2024-02-24T06:42:00.582Z,55.3
2024-02-24T06:43:00.309Z,51.9
2024-02-24T06:44:00.285Z,51.9
2024-02-24T06:45:00.600Z,54.6
2024-02-24T06:46:00.305Z,54.6
2024-02-24T06:47:02.570Z,54.3
2024-02-24T06:48:00.312Z,54.3
2024-02-24T06:49:00.579Z,48.7
2024-02-24T06:50:00.346Z,48.7
2024-02-24T06:51:00.368Z,48.0
2024-02-24T06:52:00.288Z,48.0
2024-02-24T06:53:00.374Z,47.0
2024-02-24T06:54:00.390Z,47.0
2024-02-24T06:55:00.392Z,44.8
2024-02-24T06:56:19.089Z,44.8
2024-02-24T06:57:01.540Z,43.8
2024-02-24T06:58:00.233Z,43.8
2024-02-24T06:59:00.508Z,44.7
2024-02-24T07:00:00.442Z,44.7
2024-02-24T07:01:00.835Z,44.2
2024-02-24T07:02:00.338Z,44.2
2024-02-24T07:03:00.547Z,41.8
2024-02-24T07:04:00.498Z,41.8
2024-02-24T07:05:00.350Z,39.4
2024-02-24T07:06:00.478Z,39.4
2024-02-24T07:07:00.367Z,40.3
2024-02-24T07:08:00.324Z,40.3
2024-02-24T07:09:00.469Z,43.0
2024-02-24T07:10:00.380Z,43.0
2024-02-24T07:11:00.349Z,44.1
2024-02-24T07:12:00.376Z,44.1
2024-02-24T07:13:00.288Z,42.8
2024-02-24T07:14:00.311Z,42.8
2024-02-24T07:15:00.419Z,44.8
2024-02-24T07:16:00.297Z,44.8
2024-02-24T07:17:00.499Z,45.3
2024-02-24T07:18:00.460Z,45.3
2024-02-24T07:19:00.366Z,47.1
2024-02-24T07:20:00.334Z,47.1
2024-02-24T07:21:04.062Z,44.6
2024-02-24T07:22:00.359Z,44.6
2024-02-24T07:23:00.337Z,42.2
2024-02-24T07:24:00.375Z,42.2
2024-02-24T07:25:00.433Z,48.3
2024-02-24T07:26:00.919Z,48.3
2024-02-24T07:27:00.325Z,50.5
2024-02-24T07:28:00.240Z,50.5
2024-02-24T07:29:00.293Z,49.5
2024-02-24T07:30:00.555Z,49.5
2024-02-24T07:31:00.525Z,48.9
2024-02-24T07:32:00.418Z,48.9
2024-02-24T07:33:00.591Z,48.4
2024-02-24T07:34:00.641Z,48.4
2024-02-24T07:35:00.581Z,49.7
2024-02-24T07:36:00.388Z,49.7
2024-02-24T07:37:00.305Z,48.1
2024-02-24T07:38:00.251Z,48.1
2024-02-24T07:39:00.337Z,46.3
2024-02-24T07:40:00.373Z,46.3
2024-02-24T07:41:01.274Z,54.8
2024-02-24T07:42:00.354Z,54.8
2024-02-24T07:43:00.916Z,55.2
2024-02-24T07:44:00.391Z,55.2
2024-02-24T07:45:00.610Z,53.0
2024-02-24T07:46:00.342Z,53.0
2024-02-24T07:47:00.340Z,55.7
2024-02-24T07:48:00.736Z,55.7
2024-02-24T07:49:00.741Z,56.3
2024-02-24T07:50:00.314Z,56.3
2024-02-24T07:51:00.419Z,55.7
2024-02-24T07:52:00.280Z,55.7
2024-02-24T07:53:00.312Z,51.8
2024-02-24T07:54:00.387Z,51.8
2024-02-24T07:55:00.316Z,51.7
2024-02-24T07:56:00.301Z,51.7
2024-02-24T07:57:00.450Z,52.5
2024-02-24T07:58:00.268Z,52.5
2024-02-24T07:59:00.367Z,50.3
2024-02-24T08:00:00.718Z,50.3
2024-02-24T08:01:00.939Z,47.4
2024-02-24T08:02:00.314Z,47.4
2024-02-24T08:03:00.336Z,48.2
2024-02-24T08:04:00.394Z,48.2
2024-02-24T08:05:00.356Z,48.4
2024-02-24T08:06:00.438Z,48.4
2024-02-24T08:07:00.462Z,46.6
2024-02-24T08:08:00.313Z,46.6
2024-02-24T08:09:00.394Z,51.4
2024-02-24T08:10:00.386Z,51.4
2024-02-24T08:11:01.466Z,52.4
2024-02-24T08:12:00.379Z,52.4
2024-02-24T08:13:00.342Z,54.7
2024-02-24T08:14:00.357Z,54.7
2024-02-24T08:15:00.485Z,53.5
2024-02-24T08:16:02.201Z,53.5
2024-02-24T08:17:00.337Z,50.7
2024-02-24T08:18:00.343Z,50.7
2024-02-24T08:19:00.487Z,48.5
2024-02-24T08:20:00.337Z,48.5
2024-02-24T08:21:08.491Z,45.2
2024-02-24T08:22:00.682Z,45.2
2024-02-24T08:23:00.338Z,51.1
2024-02-24T08:24:00.368Z,51.1
2024-02-24T08:25:00.307Z,51.1
2024-02-24T08:26:00.464Z,51.1
2024-02-24T08:27:00.517Z,52.7
2024-02-24T08:28:00.324Z,52.7
2024-02-24T08:29:00.382Z,51.9
2024-02-24T08:30:00.401Z,51.9
2024-02-24T08:31:00.345Z,48.1
2024-02-24T08:32:00.305Z,48.1
2024-02-24T08:33:00.470Z,49.3
2024-02-24T08:34:00.778Z,49.3
2024-02-24T08:35:00.426Z,51.0
2024-02-24T08:36:00.454Z,51.0
2024-02-24T08:37:00.293Z,47.0
2024-02-24T08:38:00.265Z,47.0
2024-02-24T08:39:00.540Z,46.3
2024-02-24T08:40:00.565Z,46.3
2024-02-24T08:41:00.495Z,45.8
2024-02-24T08:42:00.321Z,45.8
2024-02-24T08:43:00.316Z,49.2
2024-02-24T08:44:00.325Z,49.2
2024-02-24T08:45:00.402Z,44.4
2024-02-24T08:46:00.302Z,44.4
2024-02-24T08:47:00.343Z,45.6
2024-02-24T08:48:00.325Z,45.6
2024-02-24T08:49:00.366Z,43.3
2024-02-24T08:50:00.390Z,43.3
2024-02-24T08:51:00.744Z,48.8
2024-02-24T08:52:00.320Z,48.8
2024-02-24T08:53:00.299Z,48.1
2024-02-24T08:54:00.373Z,48.1
2024-02-24T08:55:00.307Z,49.1
2024-02-24T08:56:00.378Z,49.1
2024-02-24T08:57:00.404Z,46.9
2024-02-24T08:58:00.275Z,46.9
2024-02-24T08:59:00.300Z,51.9
2024-02-24T09:00:00.366Z,51.9
2024-02-24T09:01:00.810Z,47.6
2024-02-24T09:02:00.339Z,47.6
2024-02-24T09:03:00.464Z,45.9
2024-02-24T09:04:00.475Z,45.9
2024-02-24T09:05:00.329Z,46.3
2024-02-24T09:06:00.523Z,46.3
2024-02-24T09:07:00.370Z,44.6
2024-02-24T09:08:00.369Z,44.6
2024-02-24T09:09:00.413Z,47.0
2024-02-24T09:10:04.010Z,47.0
2024-02-24T09:11:00.397Z,48.2
2024-02-24T09:12:00.558Z,48.2
2024-02-24T09:13:00.293Z,51.4
2024-02-24T09:14:00.343Z,51.4
2024-02-24T09:15:00.438Z,51.1
2024-02-24T09:16:00.368Z,51.1
2024-02-24T09:17:00.318Z,50.4
2024-02-24T09:18:00.402Z,50.4
2024-02-24T09:19:00.379Z,49.5
2024-02-24T09:20:00.345Z,49.5
2024-02-24T09:21:00.577Z,48.1
2024-02-24T09:22:00.309Z,48.1
2024-02-24T09:23:00.332Z,49.8
2024-02-24T09:24:00.451Z,49.8
2024-02-24T09:25:00.455Z,52.1
2024-02-24T09:26:00.368Z,52.1
2024-02-24T09:27:00.369Z,51.2
2024-02-24T09:28:00.282Z,51.2
2024-02-24T09:29:00.288Z,50.4
2024-02-24T09:30:00.431Z,50.4
2024-02-24T09:31:00.796Z,49.2
2024-02-24T09:32:00.405Z,49.2
2024-02-24T09:33:00.475Z,45.0
2024-02-24T09:34:00.625Z,45.0
2024-02-24T09:35:00.376Z,48.4
2024-02-24T09:36:00.425Z,48.4
2024-02-24T09:37:01.692Z,53.1
2024-02-24T09:38:00.241Z,53.1
2024-02-24T09:39:00.447Z,53.0
2024-02-24T09:40:02.674Z,53.0
2024-02-24T09:41:00.341Z,52.3
2024-02-24T09:42:00.504Z,52.3
2024-02-24T09:43:00.944Z,54.8
2024-02-24T09:44:00.738Z,54.8
2024-02-24T09:45:00.956Z,52.4
2024-02-24T09:46:00.698Z,52.4
2024-02-24T09:47:01.688Z,50.8
2024-02-24T09:48:00.502Z,50.8
2024-02-24T09:49:00.810Z,50.3
2024-02-24T09:50:00.379Z,50.3
2024-02-24T09:51:00.454Z,52.5
2024-02-24T09:52:00.669Z,52.5
2024-02-24T09:53:00.465Z,56.3
2024-02-24T09:54:00.794Z,56.3
2024-02-24T09:55:01.552Z,56.0
2024-02-24T09:56:00.355Z,56.0
2024-02-24T09:57:01.222Z,52.7
2024-02-24T09:58:00.499Z,52.7
2024-02-24T09:59:01.134Z,52.6
2024-02-24T10:00:00.866Z,52.6
2024-02-24T10:01:00.366Z,52.7
2024-02-24T10:02:00.316Z,52.7
2024-02-24T10:03:00.402Z,53.7
2024-02-24T10:04:00.580Z,53.7
2024-02-24T10:05:00.361Z,56.8
2024-02-24T10:06:00.603Z,56.8
2024-02-24T10:07:00.351Z,57.4
2024-02-24T10:08:00.309Z,57.4
2024-02-24T10:09:00.408Z,60.9
2024-02-24T10:10:00.428Z,60.9
2024-02-24T10:11:00.327Z,61.1
2024-02-24T10:12:00.440Z,61.1
2024-02-24T10:13:00.905Z,61.6
2024-02-24T10:14:00.334Z,61.6
2024-02-24T10:15:00.374Z,61.1
2024-02-24T10:16:05.616Z,61.1
2024-02-24T10:17:02.642Z,61.3
2024-02-24T10:18:00.483Z,61.3
2024-02-24T10:19:00.887Z,61.0
2024-02-24T10:20:00.918Z,61.0
2024-02-24T10:21:01.244Z,58.0
2024-02-24T10:22:00.505Z,58.0
2024-02-24T10:23:00.335Z,55.2
2024-02-24T10:24:01.054Z,55.2
2024-02-24T10:25:00.312Z,57.8
2024-02-24T10:26:00.306Z,57.8
2024-02-24T10:27:00.405Z,56.9
2024-02-24T10:28:00.342Z,56.9
2024-02-24T10:29:04.794Z,55.9
2024-02-24T10:30:01.283Z,55.9
2024-02-24T10:31:00.398Z,57.2
2024-02-24T10:32:00.411Z,57.2
2024-02-24T10:33:00.629Z,57.0
2024-02-24T10:34:00.980Z,57.0
2024-02-24T10:35:01.435Z,58.9
2024-02-24T10:36:01.936Z,58.9
2024-02-24T10:37:00.889Z,57.3
2024-02-24T10:38:17.897Z,57.3
2024-02-24T10:39:01.312Z,58.7
2024-02-24T10:40:01.671Z,58.7
2024-02-24T10:41:00.708Z,61.0
2024-02-24T10:42:00.401Z,61.0
2024-02-24T10:43:00.626Z,57.1
2024-02-24T10:44:10.211Z,57.1
2024-02-24T10:45:00.506Z,54.2
2024-02-24T10:46:00.359Z,54.2
2024-02-24T10:47:00.895Z,52.8
2024-02-24T10:48:00.578Z,52.8
2024-02-24T10:49:00.368Z,53.8
2024-02-24T10:50:00.344Z,53.8
2024-02-24T10:51:00.538Z,53.5
2024-02-24T10:52:00.646Z,53.5
2024-02-24T10:53:00.700Z,58.6
2024-02-24T10:54:05.577Z,58.6
2024-02-24T10:55:00.733Z,57.6
2024-02-24T10:56:01.543Z,57.6
2024-02-24T10:57:01.510Z,53.4
2024-02-24T10:58:00.317Z,53.4
2024-02-24T10:59:08.400Z,57.0
2024-02-24T11:00:22.910Z,57.0
2024-02-24T11:01:00.819Z,55.0
2024-02-24T11:02:02.430Z,55.0
2024-02-24T11:03:00.676Z,54.5
2024-02-24T11:04:00.803Z,54.5
2024-02-24T11:05:00.346Z,53.8
2024-02-24T11:06:00.692Z,53.8
2024-02-24T11:07:00.409Z,55.2
2024-02-24T11:08:00.823Z,55.2
2024-02-24T11:09:00.387Z,56.8
2024-02-24T11:10:00.356Z,56.8
2024-02-24T11:11:08.441Z,57.9
2024-02-24T11:13:01.269Z,56.3
2024-02-24T11:14:07.135Z,56.3
2024-02-24T11:15:00.432Z,59.4
2024-02-24T11:16:00.668Z,59.4
2024-02-24T11:17:01.878Z,54.7
2024-02-24T11:18:00.857Z,54.7
2024-02-24T11:19:00.403Z,55.7
2024-02-24T11:20:00.468Z,55.7
2024-02-24T11:21:00.877Z,55.5
2024-02-24T11:22:01.128Z,55.5
2024-02-24T11:24:17.119Z,55.3
2024-02-24T11:25:01.252Z,54.1
2024-02-24T11:27:01.131Z,55.2
2024-02-24T11:28:00.327Z,55.2
2024-02-24T11:29:01.839Z,55.3
2024-02-24T11:31:02.137Z,54.9
2024-02-24T11:34:04.758Z,55.1
2024-02-24T11:35:00.748Z,54.2
2024-02-24T11:36:01.353Z,54.2
2024-02-24T11:37:00.421Z,54.6
2024-02-24T11:38:00.340Z,54.6
2024-02-24T11:39:01.474Z,54.6
2024-02-24T11:40:01.152Z,54.6
2024-02-24T11:41:03.356Z,52.2
2024-02-24T11:42:00.591Z,52.2
2024-02-24T11:43:01.096Z,54.6
2024-02-24T11:44:00.909Z,54.6
2024-02-24T11:45:01.314Z,53.7
2024-02-24T11:46:00.428Z,53.7
2024-02-24T11:47:00.345Z,54.0
2024-02-24T11:48:00.383Z,54.0
2024-02-24T11:49:00.430Z,55.1
2024-02-24T11:50:00.359Z,55.1
2024-02-24T11:51:00.506Z,53.5
2024-02-24T11:52:00.345Z,53.5
2024-02-24T11:53:00.992Z,54.4
2024-02-24T11:54:00.688Z,54.4
2024-02-24T11:55:00.390Z,55.6
2024-02-24T11:56:00.417Z,55.6
2024-02-24T11:57:02.183Z,55.2
2024-02-24T11:58:00.532Z,55.2
2024-02-24T11:59:00.435Z,56.3
2024-02-24T12:00:00.482Z,56.3
2024-02-24T12:01:00.374Z,53.4
2024-02-24T12:02:00.355Z,53.4
2024-02-24T12:03:00.436Z,53.8
2024-02-24T12:04:00.338Z,53.8
2024-02-24T12:05:16.162Z,53.1
2024-02-24T12:06:01.028Z,53.1
2024-02-24T12:07:01.021Z,54.1
2024-02-24T12:08:00.401Z,54.1
2024-02-24T12:09:00.768Z,54.0
2024-02-24T12:10:00.349Z,54.0
2024-02-24T12:11:00.622Z,54.0
2024-02-24T12:12:00.565Z,54.0
2024-02-24T12:13:00.362Z,53.9
2024-02-24T12:14:00.419Z,53.9
2024-02-24T12:15:00.371Z,52.7
2024-02-24T12:16:00.576Z,52.7
2024-02-24T12:17:00.327Z,51.4
2024-02-24T12:18:00.962Z,51.4
2024-02-24T12:19:01.352Z,51.4
2024-02-24T12:22:00.320Z,51.8
2024-02-24T12:24:00.432Z,51.4
2024-02-24T12:25:11.138Z,51.8
2024-02-24T12:27:00.394Z,51.7
2024-02-24T12:28:00.700Z,51.7
2024-02-24T12:31:00.744Z,51.7
2024-02-24T12:33:00.797Z,51.7
2024-02-24T12:35:02.311Z,52.6
2024-02-24T12:36:03.289Z,51.6
2024-02-24T12:38:00.910Z,51.1
2024-02-24T12:39:03.555Z,51.1
2024-02-24T12:40:00.679Z,51.1
2024-02-24T12:43:01.212Z,51.9
2024-02-24T12:44:00.292Z,52.2
2024-02-24T12:47:00.704Z,52.3
2024-02-24T12:50:00.438Z,52.9
2024-02-24T12:54:02.887Z,53.2
2024-02-24T12:55:00.304Z,53.7
2024-02-24T13:02:00.435Z,55.4
2024-02-24T13:04:00.355Z,55.8
2024-02-24T13:05:00.753Z,55.4
2024-02-24T13:06:00.417Z,55.4
2024-02-24T13:07:00.345Z,55.4
2024-02-24T13:08:00.273Z,55.9
2024-02-24T13:09:00.342Z,55.9
2024-02-24T13:12:00.496Z,56.6
2024-02-24T13:13:01.777Z,56.6
2024-02-24T13:16:00.322Z,58.8
2024-02-24T13:21:00.515Z,57.9
2024-02-24T13:22:00.335Z,57.9
2024-02-24T13:28:00.248Z,60.9
2024-02-24T13:30:00.410Z,60.8
2024-02-24T13:38:00.351Z,59.6
2024-02-24T13:39:00.568Z,60.6
2024-02-24T13:40:00.317Z,60.6
2024-02-24T13:41:00.581Z,60.6
2024-02-24T13:42:00.440Z,60.0
2024-02-24T13:46:00.289Z,59.5
2024-02-24T13:47:00.282Z,58.3
2024-02-24T13:48:00.441Z,58.3
2024-02-24T13:49:01.726Z,57.5
2024-02-24T13:50:00.342Z,57.5
2024-02-24T13:51:00.428Z,57.0
2024-02-24T13:52:00.284Z,57.0
2024-02-24T13:53:00.281Z,57.3
2024-02-24T13:54:00.332Z,57.3
2024-02-24T13:57:00.542Z,56.5
2024-02-24T14:01:01.353Z,54.0
2024-02-24T14:03:00.399Z,53.3
2024-02-24T14:04:00.428Z,53.3
2024-02-24T14:05:00.326Z,53.0
2024-02-24T14:06:00.448Z,53.0
2024-02-24T14:07:00.409Z,52.2
2024-02-24T14:08:00.432Z,52.2
2024-02-24T14:09:00.408Z,52.1
2024-02-24T14:10:00.575Z,52.1
2024-02-24T14:11:00.355Z,51.4
2024-02-24T14:13:00.362Z,50.9
2024-02-24T14:15:00.643Z,50.9
2024-02-24T14:16:00.853Z,53.0
2024-02-24T14:19:00.356Z,51.6
2024-02-24T14:21:01.250Z,52.6
2024-02-24T14:22:00.349Z,52.6
2024-02-24T14:23:00.694Z,51.6
2024-02-24T14:24:00.499Z,51.6
2024-02-24T14:25:00.624Z,51.2
2024-02-24T14:26:00.358Z,51.2
2024-02-24T14:27:00.573Z,51.4
2024-02-24T14:28:00.266Z,51.4
2024-02-24T14:29:02.079Z,52.5
2024-02-24T14:30:00.410Z,52.5
2024-02-24T14:31:00.458Z,52.1
2024-02-24T14:32:00.346Z,52.1
2024-02-24T14:33:00.344Z,52.9
2024-02-24T14:34:00.957Z,52.9
2024-02-24T14:35:09.656Z,53.4
2024-02-24T14:36:00.442Z,53.4
2024-02-24T14:37:00.320Z,52.5
2024-02-24T14:38:00.246Z,52.5
2024-02-24T14:39:00.782Z,53.3
2024-02-24T14:43:00.471Z,54.1
2024-02-24T14:44:00.450Z,54.1